sensor_id;sensor_type;location;lat;lon;timestamp;temperature;humidity
947;DHT22;460;48.734;9.152;2023-07-16T00:01:05;19.70;99.90
947;DHT22;460;48.734;9.152;2023-07-16T00:03:32;19.70;99.90
947;DHT22;460;48.734;9.152;2023-07-16T00:05:59;19.60;99.90
947;DHT22;460;48.734;9.152;2023-07-16T00:08:25;19.60;99.90
947;DHT22;460;48.734;9.152;2023-07-16T00:10:52;19.50;99.90
947;DHT22;460;48.734;9.152;2023-07-16T00:13:19;19.70;99.90
947;DHT22;460;48.734;9.152;2023-07-16T00:15:47;19.60;99.90
947;DHT22;460;48.734;9.152;2023-07-16T00:18:20;19.60;99.90
947;DHT22;460;48.734;9.152;2023-07-16T00:20:48;19.60;99.90
947;DHT22;460;48.734;9.152;2023-07-16T00:23:16;19.50;99.90
947;DHT22;460;48.734;9.152;2023-07-16T00:25:46;19.60;99.90
947;DHT22;460;48.734;9.152;2023-07-16T00:28:14;19.50;99.90
947;DHT22;460;48.734;9.152;2023-07-16T00:30:41;19.50;99.90
947;DHT22;460;48.734;9.152;2023-07-16T00:33:09;19.50;99.90
947;DHT22;460;48.734;9.152;2023-07-16T00:35:36;19.40;99.90
947;DHT22;460;48.734;9.152;2023-07-16T00:38:03;19.40;99.90
947;DHT22;460;48.734;9.152;2023-07-16T00:40:29;19.40;99.90
947;DHT22;460;48.734;9.152;2023-07-16T00:42:56;19.50;99.90
947;DHT22;460;48.734;9.152;2023-07-16T00:45:28;19.40;99.90
947;DHT22;460;48.734;9.152;2023-07-16T00:47:55;19.30;99.90
947;DHT22;460;48.734;9.152;2023-07-16T00:50:29;19.40;99.90
947;DHT22;460;48.734;9.152;2023-07-16T00:52:59;19.50;99.90
947;DHT22;460;48.734;9.152;2023-07-16T00:55:32;19.40;99.90
947;DHT22;460;48.734;9.152;2023-07-16T00:58:02;19.40;99.90
947;DHT22;460;48.734;9.152;2023-07-16T01:00:30;19.50;99.90
947;DHT22;460;48.734;9.152;2023-07-16T01:02:57;19.40;99.90
947;DHT22;460;48.734;9.152;2023-07-16T01:05:29;19.50;99.90
947;DHT22;460;48.734;9.152;2023-07-16T01:08:05;19.30;99.90
947;DHT22;460;48.734;9.152;2023-07-16T01:10:33;19.30;99.90
947;DHT22;460;48.734;9.152;2023-07-16T01:13:01;19.40;99.90
947;DHT22;460;48.734;9.152;2023-07-16T01:15:29;19.40;99.90
947;DHT22;460;48.734;9.152;2023-07-16T01:18:02;19.30;99.90
947;DHT22;460;48.734;9.152;2023-07-16T01:20:31;19.20;99.90
947;DHT22;460;48.734;9.152;2023-07-16T01:26:06;19.20;99.90
947;DHT22;460;48.734;9.152;2023-07-16T01:31:35;19.10;99.90
947;DHT22;460;48.734;9.152;2023-07-16T01:34:05;19.10;99.90
947;DHT22;460;48.734;9.152;2023-07-16T01:36:34;19.10;99.90
947;DHT22;460;48.734;9.152;2023-07-16T01:39:05;19.00;99.90
947;DHT22;460;48.734;9.152;2023-07-16T01:41:34;18.90;99.90
947;DHT22;460;48.734;9.152;2023-07-16T01:44:02;18.70;99.90
947;DHT22;460;48.734;9.152;2023-07-16T01:46:29;18.60;99.90
947;DHT22;460;48.734;9.152;2023-07-16T01:49:01;18.60;99.90
947;DHT22;460;48.734;9.152;2023-07-16T01:51:29;18.50;99.90
947;DHT22;460;48.734;9.152;2023-07-16T01:53:56;18.60;99.90
947;DHT22;460;48.734;9.152;2023-07-16T01:56:24;18.60;99.90
947;DHT22;460;48.734;9.152;2023-07-16T01:58:54;18.50;99.90
947;DHT22;460;48.734;9.152;2023-07-16T02:01:24;18.50;99.90
947;DHT22;460;48.734;9.152;2023-07-16T02:03:52;18.40;99.90
947;DHT22;460;48.734;9.152;2023-07-16T02:06:22;18.50;99.90
947;DHT22;460;48.734;9.152;2023-07-16T02:08:50;18.30;99.90
947;DHT22;460;48.734;9.152;2023-07-16T02:11:18;18.40;99.90
947;DHT22;460;48.734;9.152;2023-07-16T02:13:45;18.40;99.90
947;DHT22;460;48.734;9.152;2023-07-16T02:16:12;18.40;99.90
947;DHT22;460;48.734;9.152;2023-07-16T02:18:39;18.40;99.90
947;DHT22;460;48.734;9.152;2023-07-16T02:21:06;18.30;99.90
947;DHT22;460;48.734;9.152;2023-07-16T02:23:34;18.30;99.90
947;DHT22;460;48.734;9.152;2023-07-16T02:26:01;18.30;99.90
947;DHT22;460;48.734;9.152;2023-07-16T02:28:28;18.30;99.90
947;DHT22;460;48.734;9.152;2023-07-16T02:30:56;18.20;99.90
947;DHT22;460;48.734;9.152;2023-07-16T02:33:23;18.30;99.90
947;DHT22;460;48.734;9.152;2023-07-16T02:35:51;18.20;99.90
947;DHT22;460;48.734;9.152;2023-07-16T02:38:18;18.10;99.90
947;DHT22;460;48.734;9.152;2023-07-16T02:40:48;18.00;99.90
947;DHT22;460;48.734;9.152;2023-07-16T02:43:15;18.00;99.90
947;DHT22;460;48.734;9.152;2023-07-16T02:45:43;18.10;99.90
947;DHT22;460;48.734;9.152;2023-07-16T02:48:11;18.10;99.90
947;DHT22;460;48.734;9.152;2023-07-16T02:50:38;18.00;99.90
947;DHT22;460;48.734;9.152;2023-07-16T02:53:06;18.10;99.90
947;DHT22;460;48.734;9.152;2023-07-16T02:55:35;18.00;99.90
947;DHT22;460;48.734;9.152;2023-07-16T02:58:04;17.90;99.90
947;DHT22;460;48.734;9.152;2023-07-16T03:00:33;17.70;99.90
947;DHT22;460;48.734;9.152;2023-07-16T03:03:02;17.60;99.90
947;DHT22;460;48.734;9.152;2023-07-16T03:05:30;17.60;99.90
947;DHT22;460;48.734;9.152;2023-07-16T03:07:57;17.50;99.90
947;DHT22;460;48.734;9.152;2023-07-16T03:10:25;17.50;99.90
947;DHT22;460;48.734;9.152;2023-07-16T03:12:54;17.60;99.90
947;DHT22;460;48.734;9.152;2023-07-16T03:15:23;17.50;99.90
947;DHT22;460;48.734;9.152;2023-07-16T03:17:50;17.40;99.90
947;DHT22;460;48.734;9.152;2023-07-16T03:20:16;17.40;99.90
947;DHT22;460;48.734;9.152;2023-07-16T03:22:43;17.50;99.90
947;DHT22;460;48.734;9.152;2023-07-16T03:25:10;17.60;99.90
947;DHT22;460;48.734;9.152;2023-07-16T03:27:37;17.60;99.90
947;DHT22;460;48.734;9.152;2023-07-16T03:30:05;17.70;99.90
947;DHT22;460;48.734;9.152;2023-07-16T03:32:33;17.80;99.90
947;DHT22;460;48.734;9.152;2023-07-16T03:35:00;17.70;99.90
947;DHT22;460;48.734;9.152;2023-07-16T03:37:28;17.70;99.90
947;DHT22;460;48.734;9.152;2023-07-16T03:39:56;17.70;99.90
947;DHT22;460;48.734;9.152;2023-07-16T03:42:25;17.60;99.90
947;DHT22;460;48.734;9.152;2023-07-16T03:44:53;17.40;99.90
947;DHT22;460;48.734;9.152;2023-07-16T03:47:20;17.50;99.90
947;DHT22;460;48.734;9.152;2023-07-16T03:49:48;17.50;99.90
947;DHT22;460;48.734;9.152;2023-07-16T03:52:15;17.50;99.90
947;DHT22;460;48.734;9.152;2023-07-16T03:54:42;17.60;99.90
947;DHT22;460;48.734;9.152;2023-07-16T03:57:09;17.60;99.90
947;DHT22;460;48.734;9.152;2023-07-16T03:59:35;17.50;99.90
947;DHT22;460;48.734;9.152;2023-07-16T04:02:02;17.60;99.90
947;DHT22;460;48.734;9.152;2023-07-16T04:04:29;17.50;99.90
947;DHT22;460;48.734;9.152;2023-07-16T04:06:57;17.40;99.90
947;DHT22;460;48.734;9.152;2023-07-16T04:09:24;17.30;99.90
947;DHT22;460;48.734;9.152;2023-07-16T04:11:51;17.30;99.90
947;DHT22;460;48.734;9.152;2023-07-16T04:14:17;17.30;99.90
947;DHT22;460;48.734;9.152;2023-07-16T04:16:44;17.20;99.90
947;DHT22;460;48.734;9.152;2023-07-16T04:19:12;17.30;99.90
947;DHT22;460;48.734;9.152;2023-07-16T04:21:39;17.30;99.90
947;DHT22;460;48.734;9.152;2023-07-16T04:24:07;17.30;99.90
947;DHT22;460;48.734;9.152;2023-07-16T04:26:34;17.40;99.90
947;DHT22;460;48.734;9.152;2023-07-16T04:29:01;17.50;99.90
947;DHT22;460;48.734;9.152;2023-07-16T04:31:28;17.60;99.90
947;DHT22;460;48.734;9.152;2023-07-16T04:33:54;17.40;99.90
947;DHT22;460;48.734;9.152;2023-07-16T04:36:21;17.30;99.90
947;DHT22;460;48.734;9.152;2023-07-16T04:38:48;17.40;99.90
947;DHT22;460;48.734;9.152;2023-07-16T04:41:17;17.40;99.90
947;DHT22;460;48.734;9.152;2023-07-16T04:43:44;17.40;99.90
947;DHT22;460;48.734;9.152;2023-07-16T04:46:11;17.40;99.90
947;DHT22;460;48.734;9.152;2023-07-16T04:48:37;17.50;99.90
947;DHT22;460;48.734;9.152;2023-07-16T04:51:04;17.50;99.90
947;DHT22;460;48.734;9.152;2023-07-16T04:53:31;17.40;99.90
947;DHT22;460;48.734;9.152;2023-07-16T04:55:58;17.30;99.90
947;DHT22;460;48.734;9.152;2023-07-16T04:58:26;17.30;99.90
947;DHT22;460;48.734;9.152;2023-07-16T05:00:52;17.30;99.90
947;DHT22;460;48.734;9.152;2023-07-16T05:03:19;17.20;99.90
947;DHT22;460;48.734;9.152;2023-07-16T05:05:46;17.20;99.90
947;DHT22;460;48.734;9.152;2023-07-16T05:08:13;17.30;99.90
947;DHT22;460;48.734;9.152;2023-07-16T05:10:39;17.30;99.90
947;DHT22;460;48.734;9.152;2023-07-16T05:13:06;17.40;99.90
947;DHT22;460;48.734;9.152;2023-07-16T05:15:34;17.30;99.90
947;DHT22;460;48.734;9.152;2023-07-16T05:18:01;17.40;99.90
947;DHT22;460;48.734;9.152;2023-07-16T05:20:28;17.30;99.90
947;DHT22;460;48.734;9.152;2023-07-16T05:22:55;17.40;99.90
947;DHT22;460;48.734;9.152;2023-07-16T05:25:22;17.40;99.90
947;DHT22;460;48.734;9.152;2023-07-16T05:27:49;17.50;99.90
947;DHT22;460;48.734;9.152;2023-07-16T05:30:16;17.50;99.90
947;DHT22;460;48.734;9.152;2023-07-16T05:32:44;17.50;99.90
947;DHT22;460;48.734;9.152;2023-07-16T05:35:14;17.50;99.90
947;DHT22;460;48.734;9.152;2023-07-16T05:37:40;17.50;99.90
947;DHT22;460;48.734;9.152;2023-07-16T05:40:07;17.70;99.90
947;DHT22;460;48.734;9.152;2023-07-16T05:42:35;17.70;99.90
947;DHT22;460;48.734;9.152;2023-07-16T05:45:02;17.70;99.90
947;DHT22;460;48.734;9.152;2023-07-16T05:47:29;17.80;99.90
947;DHT22;460;48.734;9.152;2023-07-16T05:49:57;17.90;99.90
947;DHT22;460;48.734;9.152;2023-07-16T05:52:24;18.00;99.90
947;DHT22;460;48.734;9.152;2023-07-16T05:54:50;18.10;99.90
947;DHT22;460;48.734;9.152;2023-07-16T05:57:17;18.10;99.90
947;DHT22;460;48.734;9.152;2023-07-16T05:59:44;18.10;99.90
947;DHT22;460;48.734;9.152;2023-07-16T06:02:11;18.10;99.90
947;DHT22;460;48.734;9.152;2023-07-16T06:04:37;18.00;99.90
947;DHT22;460;48.734;9.152;2023-07-16T06:07:06;17.90;99.90
947;DHT22;460;48.734;9.152;2023-07-16T06:09:33;17.90;99.90
947;DHT22;460;48.734;9.152;2023-07-16T06:12:00;17.90;99.90
947;DHT22;460;48.734;9.152;2023-07-16T06:14:26;17.90;99.90
947;DHT22;460;48.734;9.152;2023-07-16T06:16:53;17.90;99.90
947;DHT22;460;48.734;9.152;2023-07-16T06:19:20;17.90;99.90
947;DHT22;460;48.734;9.152;2023-07-16T06:21:47;17.90;99.90
947;DHT22;460;48.734;9.152;2023-07-16T06:24:15;18.00;99.90
947;DHT22;460;48.734;9.152;2023-07-16T06:26:43;18.10;99.90
947;DHT22;460;48.734;9.152;2023-07-16T06:29:09;17.90;99.90
947;DHT22;460;48.734;9.152;2023-07-16T06:31:36;18.00;99.90
947;DHT22;460;48.734;9.152;2023-07-16T06:34:03;18.10;99.90
947;DHT22;460;48.734;9.152;2023-07-16T06:36:30;18.10;99.90
947;DHT22;460;48.734;9.152;2023-07-16T06:38:56;18.20;99.90
947;DHT22;460;48.734;9.152;2023-07-16T06:41:27;18.30;99.90
947;DHT22;460;48.734;9.152;2023-07-16T06:43:55;18.20;99.90
947;DHT22;460;48.734;9.152;2023-07-16T06:46:22;18.30;99.90
947;DHT22;460;48.734;9.152;2023-07-16T06:48:49;18.30;99.90
947;DHT22;460;48.734;9.152;2023-07-16T06:51:16;18.30;99.90
947;DHT22;460;48.734;9.152;2023-07-16T06:53:42;18.20;99.90
947;DHT22;460;48.734;9.152;2023-07-16T06:56:09;18.00;99.90
947;DHT22;460;48.734;9.152;2023-07-16T06:58:37;18.10;99.90
947;DHT22;460;48.734;9.152;2023-07-16T07:01:04;18.30;99.90
947;DHT22;460;48.734;9.152;2023-07-16T07:03:31;18.30;99.90
947;DHT22;460;48.734;9.152;2023-07-16T07:06:01;18.40;99.90
947;DHT22;460;48.734;9.152;2023-07-16T07:08:28;18.60;99.90
947;DHT22;460;48.734;9.152;2023-07-16T07:10:55;18.90;99.90
947;DHT22;460;48.734;9.152;2023-07-16T07:13:22;18.90;99.90
947;DHT22;460;48.734;9.152;2023-07-16T07:15:50;18.80;99.90
947;DHT22;460;48.734;9.152;2023-07-16T07:18:17;19.10;99.90
947;DHT22;460;48.734;9.152;2023-07-16T07:20:43;18.80;99.90
947;DHT22;460;48.734;9.152;2023-07-16T07:23:10;18.80;99.90
947;DHT22;460;48.734;9.152;2023-07-16T07:25:37;18.80;99.90
947;DHT22;460;48.734;9.152;2023-07-16T07:28:04;19.00;99.90
947;DHT22;460;48.734;9.152;2023-07-16T07:30:30;18.80;99.90
947;DHT22;460;48.734;9.152;2023-07-16T07:32:59;19.00;99.90
947;DHT22;460;48.734;9.152;2023-07-16T07:35:25;19.30;99.90
947;DHT22;460;48.734;9.152;2023-07-16T07:37:52;19.50;99.90
947;DHT22;460;48.734;9.152;2023-07-16T07:40:19;19.60;99.90
947;DHT22;460;48.734;9.152;2023-07-16T07:42:46;19.70;99.90
947;DHT22;460;48.734;9.152;2023-07-16T07:45:13;19.70;99.90
947;DHT22;460;48.734;9.152;2023-07-16T07:47:39;19.50;99.90
947;DHT22;460;48.734;9.152;2023-07-16T07:50:08;19.50;99.90
947;DHT22;460;48.734;9.152;2023-07-16T07:52:35;19.60;99.90
947;DHT22;460;48.734;9.152;2023-07-16T07:55:02;19.70;99.90
947;DHT22;460;48.734;9.152;2023-07-16T07:57:29;19.90;99.90
947;DHT22;460;48.734;9.152;2023-07-16T07:59:56;19.90;99.90
947;DHT22;460;48.734;9.152;2023-07-16T08:02:23;20.00;99.90
947;DHT22;460;48.734;9.152;2023-07-16T08:04:51;20.00;99.90
947;DHT22;460;48.734;9.152;2023-07-16T08:07:19;20.00;99.90
947;DHT22;460;48.734;9.152;2023-07-16T08:09:46;20.10;99.90
947;DHT22;460;48.734;9.152;2023-07-16T08:12:13;19.90;99.90
947;DHT22;460;48.734;9.152;2023-07-16T08:14:40;20.10;99.90
947;DHT22;460;48.734;9.152;2023-07-16T08:17:08;20.40;99.90
947;DHT22;460;48.734;9.152;2023-07-16T08:19:34;20.50;99.80
947;DHT22;460;48.734;9.152;2023-07-16T08:22:01;20.30;97.30
947;DHT22;460;48.734;9.152;2023-07-16T08:24:29;20.50;98.60
947;DHT22;460;48.734;9.152;2023-07-16T08:26:56;20.60;97.90
947;DHT22;460;48.734;9.152;2023-07-16T08:29:23;20.40;96.40
947;DHT22;460;48.734;9.152;2023-07-16T08:31:50;20.30;97.70
947;DHT22;460;48.734;9.152;2023-07-16T08:34:17;20.30;96.00
947;DHT22;460;48.734;9.152;2023-07-16T08:36:44;20.60;97.60
947;DHT22;460;48.734;9.152;2023-07-16T08:39:11;20.60;97.20
947;DHT22;460;48.734;9.152;2023-07-16T08:41:39;20.50;95.70
947;DHT22;460;48.734;9.152;2023-07-16T08:44:06;20.40;96.00
947;DHT22;460;48.734;9.152;2023-07-16T08:46:33;20.60;96.40
947;DHT22;460;48.734;9.152;2023-07-16T08:49:00;20.50;96.20
947;DHT22;460;48.734;9.152;2023-07-16T08:51:29;20.50;96.50
947;DHT22;460;48.734;9.152;2023-07-16T08:53:56;20.60;97.10
947;DHT22;460;48.734;9.152;2023-07-16T08:56:23;20.80;96.70
947;DHT22;460;48.734;9.152;2023-07-16T08:58:53;20.80;94.70
947;DHT22;460;48.734;9.152;2023-07-16T09:01:22;21.20;94.40
947;DHT22;460;48.734;9.152;2023-07-16T09:03:48;21.60;93.50
947;DHT22;460;48.734;9.152;2023-07-16T09:06:15;21.60;93.80
947;DHT22;460;48.734;9.152;2023-07-16T09:08:42;21.50;92.00
947;DHT22;460;48.734;9.152;2023-07-16T09:11:11;21.80;93.80
947;DHT22;460;48.734;9.152;2023-07-16T09:13:44;21.60;90.80
947;DHT22;460;48.734;9.152;2023-07-16T09:16:12;21.60;91.00
947;DHT22;460;48.734;9.152;2023-07-16T09:18:42;21.70;90.80
947;DHT22;460;48.734;9.152;2023-07-16T09:21:09;21.70;92.20
947;DHT22;460;48.734;9.152;2023-07-16T09:23:36;21.40;88.30
947;DHT22;460;48.734;9.152;2023-07-16T09:26:03;21.50;89.70
947;DHT22;460;48.734;9.152;2023-07-16T09:28:31;21.50;91.10
947;DHT22;460;48.734;9.152;2023-07-16T09:31:03;21.50;91.00
947;DHT22;460;48.734;9.152;2023-07-16T09:33:33;21.90;91.80
947;DHT22;460;48.734;9.152;2023-07-16T09:36:00;22.30;91.30
947;DHT22;460;48.734;9.152;2023-07-16T09:38:29;22.10;87.40
947;DHT22;460;48.734;9.152;2023-07-16T09:40:56;21.90;90.10
947;DHT22;460;48.734;9.152;2023-07-16T09:43:24;22.00;91.00
947;DHT22;460;48.734;9.152;2023-07-16T09:45:50;22.20;90.30
947;DHT22;460;48.734;9.152;2023-07-16T09:48:17;22.30;91.90
947;DHT22;460;48.734;9.152;2023-07-16T09:50:53;22.40;89.80
947;DHT22;460;48.734;9.152;2023-07-16T09:53:20;22.30;89.30
947;DHT22;460;48.734;9.152;2023-07-16T09:55:48;22.30;87.90
947;DHT22;460;48.734;9.152;2023-07-16T09:58:17;22.30;90.60
947;DHT22;460;48.734;9.152;2023-07-16T10:00:46;22.10;87.70
947;DHT22;460;48.734;9.152;2023-07-16T10:03:15;22.00;90.10
947;DHT22;460;48.734;9.152;2023-07-16T10:05:46;22.10;89.30
947;DHT22;460;48.734;9.152;2023-07-16T10:08:19;22.30;90.70
947;DHT22;460;48.734;9.152;2023-07-16T10:10:48;22.10;87.50
947;DHT22;460;48.734;9.152;2023-07-16T10:13:21;21.90;87.30
947;DHT22;460;48.734;9.152;2023-07-16T10:15:52;22.00;90.00
947;DHT22;460;48.734;9.152;2023-07-16T10:18:24;22.30;88.90
947;DHT22;460;48.734;9.152;2023-07-16T10:20:52;22.50;88.70
947;DHT22;460;48.734;9.152;2023-07-16T10:23:19;23.10;86.80
947;DHT22;460;48.734;9.152;2023-07-16T10:25:58;23.40;86.10
947;DHT22;460;48.734;9.152;2023-07-16T10:28:25;23.20;87.80
947;DHT22;460;48.734;9.152;2023-07-16T10:30:52;23.30;84.70
947;DHT22;460;48.734;9.152;2023-07-16T10:33:19;23.30;83.80
947;DHT22;460;48.734;9.152;2023-07-16T10:35:46;23.30;83.00
947;DHT22;460;48.734;9.152;2023-07-16T10:38:14;23.30;86.70
947;DHT22;460;48.734;9.152;2023-07-16T10:40:41;23.70;84.50
947;DHT22;460;48.734;9.152;2023-07-16T10:43:08;23.90;79.10
947;DHT22;460;48.734;9.152;2023-07-16T10:45:35;24.20;80.70
947;DHT22;460;48.734;9.152;2023-07-16T10:48:02;24.50;80.80
947;DHT22;460;48.734;9.152;2023-07-16T10:50:32;24.70;81.10
947;DHT22;460;48.734;9.152;2023-07-16T10:52:59;24.80;74.00
947;DHT22;460;48.734;9.152;2023-07-16T10:55:28;24.80;77.00
947;DHT22;460;48.734;9.152;2023-07-16T10:57:57;25.20;77.60
947;DHT22;460;48.734;9.152;2023-07-16T11:00:24;25.50;77.60
947;DHT22;460;48.734;9.152;2023-07-16T11:02:51;25.60;77.60
947;DHT22;460;48.734;9.152;2023-07-16T11:05:19;25.90;72.10
947;DHT22;460;48.734;9.152;2023-07-16T11:07:47;26.10;70.60
947;DHT22;460;48.734;9.152;2023-07-16T11:10:15;26.10;75.40
947;DHT22;460;48.734;9.152;2023-07-16T11:12:44;26.20;69.20
947;DHT22;460;48.734;9.152;2023-07-16T11:15:11;26.40;72.10
947;DHT22;460;48.734;9.152;2023-07-16T11:17:38;26.60;72.90
947;DHT22;460;48.734;9.152;2023-07-16T11:20:08;26.70;70.50
947;DHT22;460;48.734;9.152;2023-07-16T11:22:37;26.70;69.80
947;DHT22;460;48.734;9.152;2023-07-16T11:25:11;26.80;69.50
947;DHT22;460;48.734;9.152;2023-07-16T11:27:41;27.10;65.20
947;DHT22;460;48.734;9.152;2023-07-16T11:30:09;27.30;71.60
947;DHT22;460;48.734;9.152;2023-07-16T11:32:38;27.70;64.70
947;DHT22;460;48.734;9.152;2023-07-16T11:35:08;27.70;65.40
947;DHT22;460;48.734;9.152;2023-07-16T11:37:36;27.60;62.10
947;DHT22;460;48.734;9.152;2023-07-16T11:40:04;27.70;62.60
947;DHT22;460;48.734;9.152;2023-07-16T11:42:32;27.90;61.80
947;DHT22;460;48.734;9.152;2023-07-16T11:44:59;27.60;62.60
947;DHT22;460;48.734;9.152;2023-07-16T11:47:28;28.10;62.90
947;DHT22;460;48.734;9.152;2023-07-16T11:49:56;28.80;60.40
947;DHT22;460;48.734;9.152;2023-07-16T11:52:24;28.70;58.80
947;DHT22;460;48.734;9.152;2023-07-16T11:54:52;28.60;59.80
947;DHT22;460;48.734;9.152;2023-07-16T11:57:19;28.30;57.60
947;DHT22;460;48.734;9.152;2023-07-16T11:59:46;28.50;59.70
947;DHT22;460;48.734;9.152;2023-07-16T12:02:13;29.50;59.30
947;DHT22;460;48.734;9.152;2023-07-16T12:04:41;30.50;57.00
947;DHT22;460;48.734;9.152;2023-07-16T12:07:10;30.70;56.50
947;DHT22;460;48.734;9.152;2023-07-16T12:09:37;30.20;55.90
947;DHT22;460;48.734;9.152;2023-07-16T12:12:05;29.70;55.80
947;DHT22;460;48.734;9.152;2023-07-16T12:14:38;29.90;57.40
947;DHT22;460;48.734;9.152;2023-07-16T12:17:08;30.60;55.20
947;DHT22;460;48.734;9.152;2023-07-16T12:19:35;32.00;56.10
947;DHT22;460;48.734;9.152;2023-07-16T12:22:03;32.60;51.90
947;DHT22;460;48.734;9.152;2023-07-16T12:24:30;33.10;52.40
947;DHT22;460;48.734;9.152;2023-07-16T12:26:57;32.20;49.70
947;DHT22;460;48.734;9.152;2023-07-16T12:29:24;32.10;50.50
947;DHT22;460;48.734;9.152;2023-07-16T12:31:51;32.00;50.20
947;DHT22;460;48.734;9.152;2023-07-16T12:34:17;31.30;50.00
947;DHT22;460;48.734;9.152;2023-07-16T12:36:44;32.10;53.90
947;DHT22;460;48.734;9.152;2023-07-16T12:39:12;33.00;52.00
947;DHT22;460;48.734;9.152;2023-07-16T12:41:39;34.40;50.10
947;DHT22;460;48.734;9.152;2023-07-16T12:44:06;34.00;49.50
947;DHT22;460;48.734;9.152;2023-07-16T12:46:33;33.40;49.60
947;DHT22;460;48.734;9.152;2023-07-16T12:48:59;32.20;50.60
947;DHT22;460;48.734;9.152;2023-07-16T12:51:26;31.40;51.80
947;DHT22;460;48.734;9.152;2023-07-16T12:53:53;30.40;52.30
947;DHT22;460;48.734;9.152;2023-07-16T12:56:21;29.50;53.40
947;DHT22;460;48.734;9.152;2023-07-16T12:58:48;29.10;54.90
947;DHT22;460;48.734;9.152;2023-07-16T13:01:15;28.80;54.60
947;DHT22;460;48.734;9.152;2023-07-16T13:03:42;28.70;55.40
947;DHT22;460;48.734;9.152;2023-07-16T13:06:08;28.80;55.80
947;DHT22;460;48.734;9.152;2023-07-16T13:08:35;28.80;56.40
947;DHT22;460;48.734;9.152;2023-07-16T13:11:02;28.30;56.00
947;DHT22;460;48.734;9.152;2023-07-16T13:13:30;27.70;54.00
947;DHT22;460;48.734;9.152;2023-07-16T13:15:57;28.20;57.70
947;DHT22;460;48.734;9.152;2023-07-16T13:18:24;28.20;55.30
947;DHT22;460;48.734;9.152;2023-07-16T13:20:51;28.20;55.90
947;DHT22;460;48.734;9.152;2023-07-16T13:23:18;28.60;56.20
947;DHT22;460;48.734;9.152;2023-07-16T13:25:44;29.90;55.20
947;DHT22;460;48.734;9.152;2023-07-16T13:28:11;31.00;53.50
947;DHT22;460;48.734;9.152;2023-07-16T13:30:39;31.60;52.20
947;DHT22;460;48.734;9.152;2023-07-16T13:33:06;31.70;51.50
947;DHT22;460;48.734;9.152;2023-07-16T13:35:33;30.90;51.40
947;DHT22;460;48.734;9.152;2023-07-16T13:38:00;31.80;52.30
947;DHT22;460;48.734;9.152;2023-07-16T13:40:27;32.20;50.20
947;DHT22;460;48.734;9.152;2023-07-16T13:42:54;32.90;49.20
947;DHT22;460;48.734;9.152;2023-07-16T13:45:21;33.60;47.90
947;DHT22;460;48.734;9.152;2023-07-16T13:47:49;34.20;48.00
947;DHT22;460;48.734;9.152;2023-07-16T13:50:18;34.60;47.70
947;DHT22;460;48.734;9.152;2023-07-16T13:52:44;35.40;47.10
947;DHT22;460;48.734;9.152;2023-07-16T13:55:11;35.90;46.00
947;DHT22;460;48.734;9.152;2023-07-16T13:57:38;36.20;45.60
947;DHT22;460;48.734;9.152;2023-07-16T14:00:07;35.80;45.90
947;DHT22;460;48.734;9.152;2023-07-16T14:02:35;36.10;44.50
947;DHT22;460;48.734;9.152;2023-07-16T14:05:03;36.40;43.60
947;DHT22;460;48.734;9.152;2023-07-16T14:07:30;36.60;43.70
947;DHT22;460;48.734;9.152;2023-07-16T14:09:57;35.70;44.40
947;DHT22;460;48.734;9.152;2023-07-16T14:12:24;35.50;43.90
947;DHT22;460;48.734;9.152;2023-07-16T14:14:51;34.60;45.90
947;DHT22;460;48.734;9.152;2023-07-16T14:17:18;34.20;46.30
947;DHT22;460;48.734;9.152;2023-07-16T14:19:44;32.30;46.40
947;DHT22;460;48.734;9.152;2023-07-16T14:22:13;31.20;48.30
947;DHT22;460;48.734;9.152;2023-07-16T14:24:41;30.70;50.10
947;DHT22;460;48.734;9.152;2023-07-16T14:27:08;30.80;50.10
947;DHT22;460;48.734;9.152;2023-07-16T14:29:35;30.40;50.40
947;DHT22;460;48.734;9.152;2023-07-16T14:32:02;30.10;49.90
947;DHT22;460;48.734;9.152;2023-07-16T14:34:29;30.00;49.60
947;DHT22;460;48.734;9.152;2023-07-16T14:36:56;29.90;50.70
947;DHT22;460;48.734;9.152;2023-07-16T14:39:24;29.70;51.40
947;DHT22;460;48.734;9.152;2023-07-16T14:41:52;29.70;51.10
947;DHT22;460;48.734;9.152;2023-07-16T14:44:18;29.40;50.80
947;DHT22;460;48.734;9.152;2023-07-16T14:46:45;29.00;50.90
947;DHT22;460;48.734;9.152;2023-07-16T14:49:12;28.70;52.10
947;DHT22;460;48.734;9.152;2023-07-16T14:51:39;28.30;52.60
947;DHT22;460;48.734;9.152;2023-07-16T14:54:06;28.00;54.00
947;DHT22;460;48.734;9.152;2023-07-16T14:56:35;27.40;52.50
947;DHT22;460;48.734;9.152;2023-07-16T14:59:02;26.60;53.30
947;DHT22;460;48.734;9.152;2023-07-16T15:01:29;26.60;54.80
947;DHT22;460;48.734;9.152;2023-07-16T15:03:56;26.40;57.10
947;DHT22;460;48.734;9.152;2023-07-16T15:06:22;26.40;54.90
947;DHT22;460;48.734;9.152;2023-07-16T15:08:50;26.30;54.70
947;DHT22;460;48.734;9.152;2023-07-16T15:11:17;26.40;56.00
947;DHT22;460;48.734;9.152;2023-07-16T15:13:45;26.50;54.00
947;DHT22;460;48.734;9.152;2023-07-16T15:16:11;26.50;53.90
947;DHT22;460;48.734;9.152;2023-07-16T15:18:39;26.20;55.60
947;DHT22;460;48.734;9.152;2023-07-16T15:21:07;26.10;53.70
947;DHT22;460;48.734;9.152;2023-07-16T15:23:34;26.10;53.70
947;DHT22;460;48.734;9.152;2023-07-16T15:26:02;25.90;53.30
947;DHT22;460;48.734;9.152;2023-07-16T15:28:28;25.80;53.80
947;DHT22;460;48.734;9.152;2023-07-16T15:31:00;25.60;54.70
947;DHT22;460;48.734;9.152;2023-07-16T15:33:27;25.50;55.40
947;DHT22;460;48.734;9.152;2023-07-16T15:35:55;25.30;57.30
947;DHT22;460;48.734;9.152;2023-07-16T15:38:22;25.30;58.80
947;DHT22;460;48.734;9.152;2023-07-16T15:40:49;25.50;61.20
947;DHT22;460;48.734;9.152;2023-07-16T15:43:15;26.00;60.70
947;DHT22;460;48.734;9.152;2023-07-16T15:45:42;26.20;60.40
947;DHT22;460;48.734;9.152;2023-07-16T15:48:10;26.20;59.00
947;DHT22;460;48.734;9.152;2023-07-16T15:50:38;25.90;58.90
947;DHT22;460;48.734;9.152;2023-07-16T15:53:04;25.70;58.40
947;DHT22;460;48.734;9.152;2023-07-16T15:55:31;25.40;59.10
947;DHT22;460;48.734;9.152;2023-07-16T15:57:58;25.20;58.90
947;DHT22;460;48.734;9.152;2023-07-16T16:00:25;25.20;60.30
947;DHT22;460;48.734;9.152;2023-07-16T16:02:52;25.40;62.20
947;DHT22;460;48.734;9.152;2023-07-16T16:05:22;25.40;64.20
947;DHT22;460;48.734;9.152;2023-07-16T16:08:10;25.50;62.10
947;DHT22;460;48.734;9.152;2023-07-16T16:10:37;25.50;61.30
947;DHT22;460;48.734;9.152;2023-07-16T16:13:04;25.10;60.10
947;DHT22;460;48.734;9.152;2023-07-16T16:15:31;24.70;61.40
947;DHT22;460;48.734;9.152;2023-07-16T16:17:57;24.50;60.10
947;DHT22;460;48.734;9.152;2023-07-16T16:20:26;24.60;62.30
947;DHT22;460;48.734;9.152;2023-07-16T16:22:52;24.60;63.00
947;DHT22;460;48.734;9.152;2023-07-16T16:25:19;24.40;60.10
947;DHT22;460;48.734;9.152;2023-07-16T16:27:46;24.30;59.80
947;DHT22;460;48.734;9.152;2023-07-16T16:30:13;24.20;61.40
947;DHT22;460;48.734;9.152;2023-07-16T16:32:40;24.20;60.10
947;DHT22;460;48.734;9.152;2023-07-16T16:35:07;24.20;60.00
947;DHT22;460;48.734;9.152;2023-07-16T16:37:35;24.20;60.10
947;DHT22;460;48.734;9.152;2023-07-16T16:40:02;24.20;62.00
947;DHT22;460;48.734;9.152;2023-07-16T16:42:31;24.20;61.90